createdAt,value
2018-11-26T00:00:21.461Z,979.71
2018-11-26T00:01:21.469Z,979.64
2018-11-26T00:02:21.438Z,979.68
2018-11-26T00:03:21.427Z,979.67
2018-11-26T00:04:21.416Z,979.65
2018-11-26T00:05:21.413Z,979.70
2018-11-26T00:06:21.413Z,979.72
2018-11-26T00:07:21.389Z,979.64
2018-11-26T00:08:21.374Z,979.69
2018-11-26T00:09:21.363Z,979.65
2018-11-26T00:10:21.353Z,979.61
2018-11-26T00:11:21.358Z,979.60
2018-11-26T00:12:21.331Z,979.59
2018-11-26T00:13:21.329Z,979.58
2018-11-26T00:14:21.314Z,979.59
2018-11-26T00:15:21.300Z,979.60
2018-11-26T00:16:21.302Z,979.64
2018-11-26T00:17:21.279Z,979.61
2018-11-26T00:18:21.269Z,979.61
2018-11-26T00:19:21.265Z,979.63
2018-11-26T00:20:21.253Z,979.67
2018-11-26T00:21:21.248Z,979.55
2018-11-26T00:22:21.229Z,979.62
2018-11-26T00:23:21.218Z,979.58
2018-11-26T00:24:21.208Z,979.56
2018-11-26T00:25:21.196Z,979.53
2018-11-26T00:26:21.209Z,979.51
2018-11-26T00:27:21.173Z,979.53
2018-11-26T00:28:21.164Z,979.54
2018-11-26T00:29:21.153Z,979.51
2018-11-26T00:30:21.143Z,979.52
2018-11-26T00:31:21.145Z,979.54
2018-11-26T00:32:21.130Z,979.58
2018-11-26T00:33:21.113Z,979.59
2018-11-26T00:34:21.124Z,979.57
2018-11-26T00:35:21.093Z,979.57
2018-11-26T00:36:21.099Z,979.64
2018-11-26T00:37:21.069Z,979.57
2018-11-26T00:38:21.065Z,979.60
2018-11-26T00:39:21.049Z,979.66
2018-11-26T00:40:21.038Z,979.69
2018-11-26T00:41:21.046Z,979.73
2018-11-26T00:42:21.018Z,979.72
2018-11-26T00:43:21.007Z,979.76
2018-11-26T00:44:20.999Z,979.66
2018-11-26T00:45:20.988Z,979.71
2018-11-26T00:46:20.995Z,979.71
2018-11-26T00:47:20.965Z,979.71
2018-11-26T00:48:20.957Z,979.72
2018-11-26T00:49:20.949Z,979.71
2018-11-26T00:50:20.934Z,979.76
2018-11-26T00:51:20.936Z,979.72
2018-11-26T00:52:20.922Z,979.73
2018-11-26T00:53:20.902Z,979.76
2018-11-26T00:54:20.894Z,979.74
2018-11-26T00:55:20.881Z,979.74
2018-11-26T00:56:20.885Z,979.75
2018-11-26T00:57:20.861Z,979.78
2018-11-26T00:58:20.856Z,979.74
2018-11-26T00:59:20.852Z,979.76
2018-11-26T01:00:20.829Z,979.74
2018-11-26T01:01:20.839Z,979.68
2018-11-26T01:02:20.809Z,979.72
2018-11-26T01:03:20.797Z,979.65
2018-11-26T01:04:20.786Z,979.63
2018-11-26T01:05:20.781Z,979.62
2018-11-26T01:06:21.006Z,979.64
2018-11-26T01:07:20.777Z,979.59
2018-11-26T01:08:20.744Z,979.64
2018-11-26T01:09:20.733Z,979.57
2018-11-26T01:10:20.730Z,979.60
2018-11-26T01:11:20.714Z,979.56
2018-11-26T01:12:20.721Z,979.61
2018-11-26T01:13:20.691Z,979.62
2018-11-26T01:14:20.681Z,979.58
2018-11-26T01:15:20.669Z,979.59
2018-11-26T01:16:20.663Z,979.62
2018-11-26T01:17:20.660Z,979.65
2018-11-26T01:18:20.646Z,979.62
2018-11-26T01:19:20.634Z,979.55
2018-11-26T01:20:20.616Z,979.61
2018-11-26T01:21:20.610Z,979.52
2018-11-26T01:22:20.614Z,979.53
2018-11-26T01:23:20.601Z,979.53
2018-11-26T01:24:20.583Z,979.53
2018-11-26T01:25:20.568Z,979.49
2018-11-26T01:26:20.555Z,979.54
2018-11-26T01:27:20.548Z,979.57
2018-11-26T01:28:20.549Z,979.53
2018-11-26T01:29:20.524Z,979.57
2018-11-26T01:30:20.514Z,979.54
2018-11-26T01:31:20.528Z,979.50
2018-11-26T01:32:20.523Z,979.50
2018-11-26T01:33:20.539Z,979.50
2018-11-26T01:34:20.491Z,979.54
2018-11-26T01:35:20.462Z,979.48
2018-11-26T01:36:20.455Z,979.50
2018-11-26T01:37:20.441Z,979.47
2018-11-26T01:38:20.442Z,979.47
2018-11-26T01:39:20.425Z,979.47
2018-11-26T01:40:20.416Z,979.46
2018-11-26T01:41:20.403Z,979.45
2018-11-26T01:42:20.395Z,979.48
2018-11-26T01:43:20.392Z,979.49
2018-11-26T01:44:20.368Z,979.50
2018-11-26T01:45:20.355Z,979.51
2018-11-26T01:46:20.344Z,979.44
2018-11-26T01:47:20.340Z,979.42
2018-11-26T01:48:20.342Z,979.51
2018-11-26T01:49:20.319Z,979.57
2018-11-26T01:50:20.302Z,979.45
2018-11-26T01:51:20.298Z,979.48
2018-11-26T01:52:20.281Z,979.50
2018-11-26T01:53:20.293Z,979.45
2018-11-26T01:54:20.263Z,979.53
2018-11-26T01:55:20.251Z,979.50
2018-11-26T01:56:20.241Z,979.49
2018-11-26T01:57:20.231Z,979.51
2018-11-26T01:58:20.235Z,979.48
2018-11-26T01:59:20.211Z,979.51
2018-11-26T02:00:20.199Z,979.52
2018-11-26T02:01:20.188Z,979.53
2018-11-26T02:02:20.179Z,979.55
2018-11-26T02:03:20.183Z,979.54
2018-11-26T02:04:20.165Z,979.57
2018-11-26T02:05:20.157Z,979.55
2018-11-26T02:06:20.143Z,979.58
2018-11-26T02:07:20.140Z,979.58
2018-11-26T02:08:20.128Z,979.61
2018-11-26T02:09:20.104Z,979.52
2018-11-26T02:10:20.094Z,979.59
2018-11-26T02:11:20.082Z,979.58
2018-11-26T02:12:20.074Z,979.54
2018-11-26T02:13:20.100Z,979.57
2018-11-26T02:14:20.054Z,979.64
2018-11-26T02:15:20.045Z,979.60
2018-11-26T02:16:20.038Z,979.59
2018-11-26T02:17:20.021Z,979.58
2018-11-26T02:18:20.010Z,979.58
2018-11-26T02:19:20.033Z,979.57
2018-11-26T02:20:19.990Z,979.55
2018-11-26T02:21:19.978Z,979.56
2018-11-26T02:22:19.969Z,979.55
2018-11-26T02:23:19.961Z,979.54
2018-11-26T02:24:19.962Z,979.54
2018-11-26T02:25:19.944Z,979.52
2018-11-26T02:26:19.950Z,979.53
2018-11-26T02:27:20.481Z,979.51
2018-11-26T02:28:19.905Z,979.48
2018-11-26T02:29:19.919Z,979.49
2018-11-26T02:30:19.889Z,979.51
2018-11-26T02:31:19.879Z,979.49
2018-11-26T02:32:19.864Z,979.49
2018-11-26T02:33:19.853Z,979.55
2018-11-26T02:34:19.866Z,979.55
2018-11-26T02:35:19.831Z,979.54
2018-11-26T02:36:19.821Z,979.57
2018-11-26T02:37:19.814Z,979.53
2018-11-26T02:38:19.803Z,979.52
2018-11-26T02:39:19.811Z,979.54
2018-11-26T02:40:19.779Z,979.59
2018-11-26T02:41:19.770Z,979.52
2018-11-26T02:42:19.757Z,979.55
2018-11-26T02:43:19.747Z,979.55
2018-11-26T02:44:19.752Z,979.55
2018-11-26T02:45:19.736Z,979.51
2018-11-26T02:46:19.717Z,979.47
2018-11-26T02:47:19.708Z,979.53
2018-11-26T02:48:19.695Z,979.50
2018-11-26T02:49:19.699Z,979.52
2018-11-26T02:50:19.672Z,979.52
2018-11-26T02:51:19.668Z,979.49
2018-11-26T02:52:19.654Z,979.50
2018-11-26T02:53:19.643Z,979.52
2018-11-26T02:54:19.646Z,979.48
2018-11-26T02:55:19.659Z,979.51
2018-11-26T02:56:19.615Z,979.49
2018-11-26T02:57:19.610Z,979.49
2018-11-26T02:58:19.590Z,979.49
2018-11-26T02:59:19.592Z,979.52
2018-11-26T03:00:19.570Z,979.51
2018-11-26T03:01:19.558Z,979.50
2018-11-26T03:02:19.548Z,979.54
2018-11-26T03:03:19.551Z,979.55
2018-11-26T03:04:19.540Z,979.57
2018-11-26T03:05:19.515Z,979.64
2018-11-26T03:06:19.506Z,979.56
2018-11-26T03:07:19.496Z,979.63
2018-11-26T03:08:19.489Z,979.61
2018-11-26T03:09:19.495Z,979.57
2018-11-26T03:10:19.464Z,979.59
2018-11-26T03:11:19.453Z,979.60
2018-11-26T03:12:19.446Z,979.61
2018-11-26T03:13:19.431Z,979.59
2018-11-26T03:14:19.436Z,979.59
2018-11-26T03:15:19.420Z,979.59
2018-11-26T03:16:19.401Z,979.56
2018-11-26T03:17:19.389Z,979.57
2018-11-26T03:18:19.385Z,979.60
2018-11-26T03:19:19.383Z,979.56
2018-11-26T03:20:19.360Z,979.60
2018-11-26T03:21:19.362Z,979.51
2018-11-26T03:22:19.337Z,979.54
2018-11-26T03:23:19.336Z,979.49
2018-11-26T03:24:19.331Z,979.52
2018-11-26T03:25:19.320Z,979.44
2018-11-26T03:26:19.296Z,979.53
2018-11-26T03:27:19.296Z,979.46
2018-11-26T03:28:19.289Z,979.52
2018-11-26T03:29:19.265Z,979.48
2018-11-26T03:30:19.262Z,979.52
2018-11-26T03:31:19.244Z,979.49
2018-11-26T03:32:19.232Z,979.50
2018-11-26T03:33:19.257Z,979.49
2018-11-26T03:34:19.212Z,979.47
2018-11-26T03:35:19.201Z,979.45
2018-11-26T03:36:19.191Z,979.47
2018-11-26T03:37:19.182Z,979.48
2018-11-26T03:38:19.183Z,979.45
2018-11-26T03:39:19.166Z,979.42
2018-11-26T03:40:19.153Z,979.37
2018-11-26T03:41:19.142Z,979.39
2018-11-26T03:42:19.128Z,979.50
2018-11-26T03:43:19.131Z,979.47
2018-11-26T03:44:19.108Z,979.47
2018-11-26T03:45:19.109Z,979.42
2018-11-26T03:46:19.087Z,979.45
2018-11-26T03:47:19.093Z,979.38
2018-11-26T03:48:19.082Z,979.43
2018-11-26T03:49:19.058Z,979.36
2018-11-26T03:50:19.044Z,979.35
2018-11-26T03:51:19.040Z,979.38
2018-11-26T03:52:19.024Z,979.39
2018-11-26T03:53:19.024Z,979.39
2018-11-26T03:54:19.000Z,979.38
2018-11-26T03:55:18.993Z,979.45
2018-11-26T03:56:18.979Z,979.44
2018-11-26T03:57:18.973Z,979.48
2018-11-26T03:58:18.976Z,979.44
2018-11-26T03:59:18.949Z,979.47
2018-11-26T04:00:18.950Z,979.45
2018-11-26T04:01:18.928Z,979.55
2018-11-26T04:02:18.924Z,979.54
2018-11-26T04:03:18.922Z,979.55
2018-11-26T04:04:18.910Z,979.52
2018-11-26T04:05:18.888Z,979.49
2018-11-26T04:06:18.876Z,979.49
2018-11-26T04:07:18.866Z,979.50
2018-11-26T04:08:18.868Z,979.45
2018-11-26T04:09:18.845Z,979.49
2018-11-26T04:10:18.852Z,979.44
2018-11-26T04:11:18.825Z,979.45
2018-11-26T04:12:18.815Z,979.41
2018-11-26T04:13:18.814Z,979.32
2018-11-26T04:14:18.792Z,979.45
2018-11-26T04:15:18.785Z,979.36
2018-11-26T04:16:18.773Z,979.35
2018-11-26T04:17:18.773Z,979.41
2018-11-26T04:18:18.763Z,979.41
2018-11-26T04:19:18.739Z,979.41
2018-11-26T04:20:18.729Z,979.43
2018-11-26T04:21:18.718Z,979.43
2018-11-26T04:22:18.708Z,979.40
2018-11-26T04:23:18.719Z,979.37
2018-11-26T04:24:18.687Z,979.44
2018-11-26T04:25:18.678Z,979.40
2018-11-26T04:26:18.666Z,979.44
2018-11-26T04:27:18.656Z,979.47
2018-11-26T04:28:18.659Z,979.42
2018-11-26T04:29:18.646Z,979.46
2018-11-26T04:30:18.623Z,979.50
2018-11-26T04:31:18.615Z,979.42
2018-11-26T04:32:18.603Z,979.47
2018-11-26T04:33:18.605Z,979.43
2018-11-26T04:34:18.582Z,979.40
2018-11-26T04:35:18.577Z,979.42
2018-11-26T04:36:18.565Z,979.40
2018-11-26T04:37:18.551Z,979.39
2018-11-26T04:38:18.551Z,979.44
2018-11-26T04:39:18.529Z,979.37
2018-11-26T04:40:18.518Z,979.44
2018-11-26T04:41:18.508Z,979.39
2018-11-26T04:42:18.507Z,979.38
2018-11-26T04:43:18.501Z,979.38
2018-11-26T04:44:18.478Z,979.34
2018-11-26T04:45:18.466Z,979.38
2018-11-26T04:46:18.454Z,979.38
2018-11-26T04:47:18.449Z,979.40
2018-11-26T04:48:18.458Z,979.38
2018-11-26T04:49:18.428Z,979.40
2018-11-26T04:50:18.413Z,979.38
2018-11-26T04:51:18.402Z,979.39
2018-11-26T04:52:18.391Z,979.37
2018-11-26T04:53:18.394Z,979.33
2018-11-26T04:54:18.371Z,979.38
2018-11-26T04:55:18.377Z,979.33
2018-11-26T04:56:18.352Z,979.33
2018-11-26T04:57:18.339Z,979.37
2018-11-26T04:58:18.341Z,979.37
2018-11-26T04:59:18.317Z,979.32
2018-11-26T05:00:18.314Z,979.30
2018-11-26T05:01:18.305Z,979.37
2018-11-26T05:02:18.286Z,979.28
2018-11-26T05:03:18.290Z,979.27
2018-11-26T05:04:18.264Z,979.29
2018-11-26T05:05:18.255Z,979.30
2018-11-26T05:06:18.244Z,979.29
2018-11-26T05:07:18.238Z,979.32
2018-11-26T05:08:18.248Z,979.27
2018-11-26T05:09:18.214Z,979.33
2018-11-26T05:10:18.202Z,979.28
2018-11-26T05:11:18.191Z,979.33
2018-11-26T05:12:18.181Z,979.37
2018-11-26T05:13:18.196Z,979.33
2018-11-26T05:14:18.174Z,979.34
2018-11-26T05:15:18.150Z,979.38
2018-11-26T05:16:18.138Z,979.33
2018-11-26T05:17:18.133Z,979.31
2018-11-26T05:18:18.117Z,979.33
2018-11-26T05:19:18.118Z,979.32
2018-11-26T05:20:18.102Z,979.34
2018-11-26T05:21:18.086Z,979.37
2018-11-26T05:22:18.081Z,979.31
2018-11-26T05:23:18.064Z,979.32
2018-11-26T05:24:18.067Z,979.31
2018-11-26T05:25:18.044Z,979.31
2018-11-26T05:26:18.036Z,979.32
2018-11-26T05:27:18.032Z,979.30
2018-11-26T05:28:18.020Z,979.30
2018-11-26T05:29:18.014Z,979.35
2018-11-26T05:30:17.990Z,979.32
2018-11-26T05:31:17.979Z,979.26
2018-11-26T05:32:17.971Z,979.32
2018-11-26T05:33:17.974Z,979.31
2018-11-26T05:34:17.961Z,979.27
2018-11-26T05:35:17.937Z,979.25
2018-11-26T05:36:17.931Z,979.29
2018-11-26T05:37:17.917Z,979.26
2018-11-26T05:38:17.907Z,979.24
2018-11-26T05:39:17.916Z,979.21
2018-11-26T05:40:17.885Z,979.23
2018-11-26T05:41:17.876Z,979.26
2018-11-26T05:42:17.864Z,979.27
2018-11-26T05:43:17.856Z,979.25
2018-11-26T05:44:17.855Z,979.24
2018-11-26T05:45:17.844Z,979.31
2018-11-26T05:46:17.820Z,979.27
2018-11-26T05:47:17.815Z,979.31
2018-11-26T05:48:17.799Z,979.29
2018-11-26T05:49:17.806Z,979.35
2018-11-26T05:50:17.779Z,979.34
2018-11-26T05:51:17.784Z,979.29
2018-11-26T05:52:17.757Z,979.30
2018-11-26T05:53:17.751Z,979.30
2018-11-26T05:54:17.752Z,979.32
2018-11-26T05:55:17.726Z,979.29
2018-11-26T05:56:17.715Z,979.28
2018-11-26T05:57:17.710Z,979.35
2018-11-26T05:58:17.694Z,979.29
2018-11-26T05:59:17.695Z,979.31
2018-11-26T06:00:17.673Z,979.33
2018-11-26T06:01:17.667Z,979.34
2018-11-26T06:02:17.651Z,979.27
2018-11-26T06:03:17.649Z,979.29
2018-11-26T06:04:17.642Z,979.25
2018-11-26T06:05:17.631Z,979.25
2018-11-26T06:06:17.612Z,979.26
2018-11-26T06:07:17.601Z,979.27
2018-11-26T06:08:17.588Z,979.35
2018-11-26T06:09:17.596Z,979.34
2018-11-26T06:10:17.566Z,979.35
2018-11-26T06:11:17.558Z,979.35
2018-11-26T06:12:17.547Z,979.39
2018-11-26T06:13:17.534Z,979.39
2018-11-26T06:14:17.573Z,979.38
2018-11-26T06:15:17.518Z,979.44
2018-11-26T06:16:17.513Z,979.44
2018-11-26T06:17:17.495Z,979.43
2018-11-26T06:18:17.483Z,979.43
2018-11-26T06:19:17.484Z,979.44
2018-11-26T06:20:17.465Z,979.47
2018-11-26T06:21:17.451Z,979.43
2018-11-26T06:22:17.449Z,979.45
2018-11-26T06:23:17.429Z,979.41
2018-11-26T06:24:17.434Z,979.42
2018-11-26T06:25:17.425Z,979.45
2018-11-26T06:26:17.399Z,979.50
2018-11-26T06:27:17.389Z,979.51
2018-11-26T06:28:17.387Z,979.49
2018-11-26T06:29:17.391Z,979.52
2018-11-26T06:30:17.361Z,979.49
2018-11-26T06:31:17.350Z,979.52
2018-11-26T06:32:17.338Z,979.52
2018-11-26T06:33:17.329Z,979.58
2018-11-26T06:34:17.338Z,979.56
2018-11-26T06:35:17.305Z,979.54
2018-11-26T06:36:17.295Z,979.54
2018-11-26T06:37:17.283Z,979.53
2018-11-26T06:38:17.273Z,979.58
2018-11-26T06:39:17.276Z,979.57
2018-11-26T06:40:17.263Z,979.56
2018-11-26T06:41:17.244Z,979.65
2018-11-26T06:42:17.232Z,979.57
2018-11-26T06:43:17.469Z,979.63
2018-11-26T06:44:17.223Z,979.62
2018-11-26T06:45:17.197Z,979.59
2018-11-26T06:46:17.191Z,979.66
2018-11-26T06:47:17.177Z,979.56
2018-11-26T06:48:17.167Z,979.69
2018-11-26T06:49:17.168Z,979.52
2018-11-26T06:50:17.186Z,979.49
2018-11-26T06:51:17.138Z,979.61
2018-11-26T06:52:17.130Z,979.70
2018-11-26T06:53:17.114Z,979.69
2018-11-26T06:54:17.118Z,979.74
2018-11-26T06:55:17.093Z,979.73
2018-11-26T06:56:17.084Z,979.77
2018-11-26T06:57:17.072Z,979.72
2018-11-26T06:58:17.065Z,979.80
2018-11-26T06:59:17.062Z,979.78
2018-11-26T07:00:17.040Z,979.71
2018-11-26T07:01:17.029Z,979.76
2018-11-26T07:02:17.023Z,979.77
2018-11-26T07:03:17.008Z,979.80
2018-11-26T07:04:17.033Z,979.80
2018-11-26T07:05:16.987Z,979.80
2018-11-26T07:06:16.977Z,979.81
2018-11-26T07:07:16.967Z,979.82
2018-11-26T07:08:16.955Z,979.82
2018-11-26T07:09:16.962Z,979.82
2018-11-26T07:10:16.949Z,979.85
2018-11-26T07:11:16.923Z,979.91
2018-11-26T07:12:16.913Z,979.87
2018-11-26T07:13:16.901Z,979.98
2018-11-26T07:14:16.904Z,979.97
2018-11-26T07:15:16.882Z,979.98
2018-11-26T07:16:16.877Z,980.01
2018-11-26T07:17:16.863Z,980.02
2018-11-26T07:18:16.850Z,980.03
2018-11-26T07:19:16.851Z,980.11
2018-11-26T07:20:16.829Z,980.08
2018-11-26T07:21:16.816Z,980.16
2018-11-26T07:22:16.813Z,980.20
2018-11-26T07:23:16.796Z,980.19
2018-11-26T07:24:16.800Z,980.20
2018-11-26T07:25:16.775Z,980.25
2018-11-26T07:26:16.764Z,980.21
2018-11-26T07:27:16.756Z,980.18
2018-11-26T07:28:16.759Z,980.21
2018-11-26T07:29:23.849Z,980.17
2018-11-26T07:30:17.726Z,980.26
2018-11-26T07:31:16.712Z,980.34
2018-11-26T07:32:16.701Z,980.31
2018-11-26T07:33:16.692Z,980.31
2018-11-26T07:34:16.699Z,980.23
2018-11-26T07:35:16.680Z,980.27
2018-11-26T07:36:16.661Z,980.31
2018-11-26T07:37:16.651Z,980.33
2018-11-26T07:38:16.639Z,980.36
2018-11-26T07:39:16.640Z,980.32
2018-11-26T07:40:16.616Z,980.32
2018-11-26T07:41:16.621Z,980.44
2018-11-26T07:42:16.599Z,980.45
2018-11-26T07:43:16.587Z,980.42
2018-11-26T07:44:16.589Z,980.45
2018-11-26T07:45:16.564Z,980.49
2018-11-26T07:46:16.555Z,980.49
2018-11-26T07:47:16.546Z,980.49
2018-11-26T07:48:16.533Z,980.48
2018-11-26T07:49:16.534Z,980.51
2018-11-26T07:50:16.514Z,980.51
2018-11-26T07:51:16.503Z,980.50
2018-11-26T07:52:16.496Z,980.48
2018-11-26T07:53:16.495Z,980.54
2018-11-26T07:54:16.483Z,980.56
2018-11-26T07:55:16.459Z,980.58
2018-11-26T07:56:16.449Z,980.57
2018-11-26T07:57:16.440Z,980.58
2018-11-26T07:58:16.432Z,980.57
2018-11-26T07:59:16.434Z,980.57
2018-11-26T08:00:16.413Z,980.58
2018-11-26T08:01:16.397Z,980.58
2018-11-26T08:02:16.388Z,980.57
2018-11-26T08:03:16.378Z,980.56
2018-11-26T08:04:16.378Z,980.57
2018-11-26T08:05:16.356Z,980.52
2018-11-26T08:06:16.349Z,980.52
2018-11-26T08:07:16.339Z,980.58
2018-11-26T08:08:16.328Z,980.59
2018-11-26T08:09:16.325Z,980.61
2018-11-26T08:10:16.311Z,980.65
2018-11-26T08:11:16.296Z,980.65
2018-11-26T08:12:16.335Z,980.61
2018-11-26T08:13:16.272Z,980.59
2018-11-26T08:14:16.290Z,980.59
2018-11-26T08:15:16.254Z,980.68
2018-11-26T08:16:16.242Z,980.63
2018-11-26T08:17:16.230Z,980.68
2018-11-26T08:18:16.224Z,980.68
2018-11-26T08:19:16.208Z,980.68
2018-11-26T08:20:16.256Z,980.70
2018-11-26T08:21:16.191Z,980.68
2018-11-26T08:22:16.178Z,980.71
2018-11-26T08:23:16.168Z,980.66
2018-11-26T08:24:16.163Z,980.69
2018-11-26T08:25:16.220Z,980.69
2018-11-26T08:26:16.142Z,980.75
2018-11-26T08:27:16.123Z,980.73
2018-11-26T08:28:16.123Z,980.69
2018-11-26T08:29:16.106Z,980.76
2018-11-26T08:30:16.109Z,980.78
2018-11-26T08:31:16.088Z,980.79
2018-11-26T08:32:16.075Z,980.82
2018-11-26T08:33:16.060Z,980.81
2018-11-26T08:34:16.050Z,980.82
2018-11-26T08:35:16.052Z,980.87
2018-11-26T08:36:16.034Z,980.87
2018-11-26T08:37:16.020Z,980.86
2018-11-26T08:38:16.007Z,980.84
2018-11-26T08:39:15.998Z,980.82
2018-11-26T08:40:16.003Z,980.83
2018-11-26T08:41:15.977Z,980.80
2018-11-26T08:42:15.978Z,980.81
2018-11-26T08:43:15.964Z,980.84
2018-11-26T08:44:15.947Z,980.84
2018-11-26T08:45:15.945Z,980.84
2018-11-26T08:46:15.924Z,980.88
2018-11-26T08:47:15.912Z,980.88
2018-11-26T08:48:15.903Z,980.91
2018-11-26T08:49:15.898Z,980.91
2018-11-26T08:50:15.893Z,980.92
2018-11-26T08:51:15.869Z,980.91
2018-11-26T08:52:15.862Z,980.93
2018-11-26T08:53:15.847Z,980.93
2018-11-26T08:54:15.840Z,980.96
2018-11-26T08:55:15.850Z,980.97
2018-11-26T08:56:16.013Z,981.00
2018-11-26T08:57:15.806Z,980.98
2018-11-26T08:58:15.796Z,980.97
2018-11-26T08:59:15.784Z,980.97
2018-11-26T09:00:15.956Z,980.96
2018-11-26T09:01:15.769Z,980.94
2018-11-26T09:02:15.754Z,980.93
2018-11-26T09:03:15.746Z,980.90
2018-11-26T09:04:15.730Z,980.90
2018-11-26T09:05:15.734Z,980.91
2018-11-26T09:06:15.712Z,980.88
2018-11-26T09:07:15.698Z,980.91
2018-11-26T09:08:15.687Z,980.94
2018-11-26T09:09:15.680Z,980.95
2018-11-26T09:10:15.696Z,980.95
2018-11-26T09:11:15.658Z,980.89
2018-11-26T09:12:15.644Z,980.92
2018-11-26T09:13:15.633Z,980.95
2018-11-26T09:14:15.627Z,980.94
2018-11-26T09:15:15.627Z,980.92
2018-11-26T09:16:15.602Z,980.89
2018-11-26T09:17:15.600Z,980.89
2018-11-26T09:18:15.582Z,980.83
2018-11-26T09:19:15.569Z,980.90
2018-11-26T09:20:15.638Z,980.94
2018-11-26T09:21:15.548Z,980.89
2018-11-26T09:22:15.538Z,980.88
2018-11-26T09:23:15.535Z,980.91
2018-11-26T09:24:15.518Z,980.89
2018-11-26T09:25:15.520Z,980.85
2018-11-26T09:26:15.495Z,980.85
2018-11-26T09:27:15.490Z,980.91
2018-11-26T09:28:15.475Z,980.87
2018-11-26T09:29:15.468Z,980.93
2018-11-26T09:30:15.467Z,980.97
2018-11-26T09:31:15.443Z,980.96
2018-11-26T09:32:15.437Z,980.99
2018-11-26T09:33:15.424Z,981.00
2018-11-26T09:34:15.413Z,981.04
2018-11-26T09:35:15.423Z,981.03
2018-11-26T09:36:15.390Z,981.03
2018-11-26T09:37:15.378Z,981.04
2018-11-26T09:38:15.370Z,981.05
2018-11-26T09:39:15.355Z,981.10
2018-11-26T09:40:15.360Z,981.10
2018-11-26T09:41:15.340Z,981.15
2018-11-26T09:42:15.331Z,981.14
2018-11-26T09:43:15.314Z,981.13
2018-11-26T09:44:15.303Z,981.10
2018-11-26T09:45:15.326Z,981.18
2018-11-26T09:46:15.281Z,981.17
2018-11-26T09:47:15.269Z,981.14
2018-11-26T09:48:15.264Z,981.15
2018-11-26T09:49:15.251Z,981.14
2018-11-26T09:50:15.239Z,981.14
2018-11-26T09:51:15.240Z,981.14
2018-11-26T09:52:15.216Z,981.11
2018-11-26T09:53:15.209Z,981.12
2018-11-26T09:54:15.198Z,981.12
2018-11-26T09:55:15.185Z,981.08
2018-11-26T09:56:15.189Z,981.15
2018-11-26T09:57:15.161Z,981.09
2018-11-26T09:58:15.151Z,981.08
2018-11-26T09:59:15.142Z,981.09
2018-11-26T10:00:15.134Z,981.09
2018-11-26T10:01:15.136Z,981.03
2018-11-26T10:02:15.108Z,981.05
2018-11-26T10:03:15.102Z,981.07
2018-11-26T10:04:15.086Z,981.00
2018-11-26T10:05:15.077Z,981.08
2018-11-26T10:06:15.078Z,981.03
2018-11-26T10:07:15.063Z,981.03
2018-11-26T10:08:15.086Z,981.06
2018-11-26T10:09:15.040Z,981.06
2018-11-26T10:10:15.026Z,981.03
2018-11-26T10:11:15.036Z,981.03
2018-11-26T10:12:15.016Z,981.03
2018-11-26T10:13:14.990Z,981.06
2018-11-26T10:14:14.980Z,981.03
2018-11-26T10:15:14.972Z,981.10
2018-11-26T10:16:14.972Z,981.10
2018-11-26T10:17:14.949Z,981.10
2018-11-26T10:18:14.937Z,981.04
2018-11-26T10:19:14.928Z,981.08
2018-11-26T10:20:14.924Z,981.07
2018-11-26T10:21:14.920Z,981.00
2018-11-26T10:22:14.894Z,981.07
2018-11-26T10:23:14.884Z,981.10
2018-11-26T10:24:14.876Z,981.09
2018-11-26T10:25:14.863Z,980.99
2018-11-26T10:26:14.916Z,981.01
2018-11-26T10:27:14.843Z,980.99
2018-11-26T10:28:14.832Z,980.96
2018-11-26T10:29:14.820Z,980.96
2018-11-26T10:30:14.810Z,980.98
2018-11-26T10:31:14.811Z,980.96
2018-11-26T10:32:14.796Z,980.94
2018-11-26T10:33:15.125Z,980.92
2018-11-26T10:34:14.766Z,980.99
2018-11-26T10:35:14.756Z,980.92
2018-11-26T10:36:14.757Z,981.00
2018-11-26T10:37:14.734Z,981.03
2018-11-26T10:38:14.725Z,981.00
2018-11-26T10:39:14.719Z,981.00
2018-11-26T10:40:14.709Z,981.03
2018-11-26T10:41:14.705Z,981.06
2018-11-26T10:42:14.692Z,981.02
2018-11-26T10:43:14.672Z,981.00
2018-11-26T10:44:14.663Z,981.05
2018-11-26T10:45:14.649Z,981.10
2018-11-26T10:46:14.664Z,981.07
2018-11-26T10:47:14.634Z,981.02
2018-11-26T10:48:14.619Z,981.05
2018-11-26T10:49:14.610Z,981.03
2018-11-26T10:50:15.104Z,981.01
2018-11-26T10:51:14.599Z,981.00
2018-11-26T10:52:14.575Z,980.98
2018-11-26T10:53:14.568Z,980.98
2018-11-26T10:54:14.553Z,980.97
2018-11-26T10:55:14.541Z,980.96
2018-11-26T10:56:14.544Z,980.93
2018-11-26T10:57:14.522Z,980.94
2018-11-26T10:58:14.511Z,980.93
2018-11-26T10:59:14.508Z,980.92
2018-11-26T11:00:14.489Z,980.94
2018-11-26T11:01:14.496Z,980.93
2018-11-26T11:02:14.468Z,980.95
2018-11-26T11:03:14.457Z,980.94
2018-11-26T11:04:14.452Z,980.89
2018-11-26T11:05:14.444Z,980.90
2018-11-26T11:06:14.437Z,980.89
2018-11-26T11:07:14.416Z,980.94
2018-11-26T11:08:14.404Z,980.91
2018-11-26T11:09:14.391Z,980.85
2018-11-26T11:10:14.384Z,980.87
2018-11-26T11:11:14.391Z,980.87
2018-11-26T11:12:14.364Z,980.88
2018-11-26T11:13:14.349Z,980.87
2018-11-26T11:14:14.340Z,980.92
2018-11-26T11:15:14.331Z,980.87
2018-11-26T11:16:14.331Z,980.88
2018-11-26T11:17:14.312Z,980.93
2018-11-26T11:18:14.305Z,980.88
2018-11-26T11:19:14.288Z,980.89
2018-11-26T11:20:14.275Z,980.87
2018-11-26T11:21:14.275Z,980.85
2018-11-26T11:22:14.255Z,980.85
2018-11-26T11:23:14.243Z,980.80
2018-11-26T11:24:14.235Z,980.89
2018-11-26T11:25:14.221Z,980.87
2018-11-26T11:26:14.222Z,980.91
2018-11-26T11:27:14.383Z,980.89
2018-11-26T11:28:14.192Z,980.90
2018-11-26T11:29:14.177Z,980.85
2018-11-26T11:30:14.171Z,980.89
2018-11-26T11:31:14.171Z,980.86
2018-11-26T11:32:14.146Z,980.91
2018-11-26T11:33:43.951Z,980.89
2018-11-26T11:34:43.938Z,980.90
2018-11-26T11:35:43.929Z,980.88
2018-11-26T11:36:43.935Z,980.83
2018-11-26T11:37:43.914Z,980.89
2018-11-26T11:38:44.057Z,980.82
2018-11-26T11:39:44.237Z,980.89
2018-11-26T11:40:43.876Z,980.79
2018-11-26T11:41:43.876Z,980.86
2018-11-26T11:42:43.881Z,980.86
2018-11-26T11:43:43.846Z,980.86
2018-11-26T11:44:43.831Z,980.90
2018-11-26T11:45:43.829Z,980.90
2018-11-26T11:46:43.824Z,980.87
2018-11-26T11:47:43.799Z,980.85
2018-11-26T11:48:43.793Z,980.88
2018-11-26T11:49:43.781Z,980.92
2018-11-26T11:50:43.775Z,980.92
2018-11-26T11:51:43.768Z,980.92
2018-11-26T11:52:43.747Z,980.94
2018-11-26T11:53:43.733Z,980.95
2018-11-26T11:54:43.731Z,980.96
2018-11-26T11:55:43.714Z,981.00
2018-11-26T11:56:43.717Z,980.97
2018-11-26T11:57:43.692Z,980.99
2018-11-26T11:58:43.687Z,981.02
2018-11-26T11:59:43.672Z,981.05
2018-11-26T12:00:43.662Z,981.05
2018-11-26T12:01:43.677Z,981.01
2018-11-26T12:02:43.640Z,981.03
2018-11-26T12:03:43.628Z,981.05
2018-11-26T12:04:43.636Z,980.99
2018-11-26T12:05:43.611Z,981.01
2018-11-26T12:06:43.609Z,980.97
2018-11-26T12:07:43.594Z,981.00
2018-11-26T12:08:43.580Z,981.00
2018-11-26T12:09:43.564Z,981.06
2018-11-26T12:10:43.553Z,981.04
2018-11-26T12:11:43.556Z,981.04
2018-11-26T12:12:43.533Z,981.03
2018-11-26T12:13:43.521Z,981.05
2018-11-26T12:14:43.514Z,981.01
2018-11-26T12:15:43.504Z,980.97
2018-11-26T12:16:43.502Z,981.02
2018-11-26T12:17:43.479Z,981.04
2018-11-26T12:18:43.467Z,980.98
2018-11-26T12:19:43.498Z,980.99
2018-11-26T12:20:43.447Z,981.01
2018-11-26T12:21:43.460Z,980.97
2018-11-26T12:22:43.425Z,981.02
2018-11-26T12:23:43.420Z,981.02
2018-11-26T12:24:43.407Z,981.00
2018-11-26T12:25:43.396Z,981.00
2018-11-26T12:26:43.396Z,980.97
2018-11-26T12:27:43.380Z,980.98
2018-11-26T12:28:43.368Z,981.01